sensor_id;sensor_type;location;lat;lon;timestamp;P1;durP1;ratioP1;P2;durP2;ratioP2
46757;SDS011;32509;47.750;-3.396;2023-07-22T00:00:50;5.45;;;3.38;;
46757;SDS011;32509;47.750;-3.396;2023-07-22T00:03:15;6.53;;;3.88;;
46757;SDS011;32509;47.750;-3.396;2023-07-22T00:05:41;4.45;;;4.05;;
46757;SDS011;32509;47.750;-3.396;2023-07-22T00:08:07;5.55;;;3.92;;
46757;SDS011;32509;47.750;-3.396;2023-07-22T00:10:33;4.50;;;3.80;;
46757;SDS011;32509;47.750;-3.396;2023-07-22T00:12:59;5.47;;;3.25;;
46757;SDS011;32509;47.750;-3.396;2023-07-22T00:15:25;8.00;;;4.70;;
46757;SDS011;32509;47.750;-3.396;2023-07-22T00:17:50;3.50;;;3.20;;
46757;SDS011;32509;47.750;-3.396;2023-07-22T00:20:16;4.88;;;3.33;;
46757;SDS011;32509;47.750;-3.396;2023-07-22T00:22:42;4.80;;;4.00;;
46757;SDS011;32509;47.750;-3.396;2023-07-22T00:25:11;5.22;;;3.85;;
46757;SDS011;32509;47.750;-3.396;2023-07-22T00:27:40;4.40;;;3.60;;
46757;SDS011;32509;47.750;-3.396;2023-07-22T00:30:07;4.30;;;3.92;;
46757;SDS011;32509;47.750;-3.396;2023-07-22T00:32:33;5.68;;;3.67;;
46757;SDS011;32509;47.750;-3.396;2023-07-22T00:34:59;4.80;;;3.95;;
46757;SDS011;32509;47.750;-3.396;2023-07-22T00:37:25;5.18;;;3.85;;
46757;SDS011;32509;47.750;-3.396;2023-07-22T00:39:51;4.68;;;4.15;;
46757;SDS011;32509;47.750;-3.396;2023-07-22T00:42:17;4.10;;;3.58;;
46757;SDS011;32509;47.750;-3.396;2023-07-22T00:44:42;3.58;;;3.28;;
46757;SDS011;32509;47.750;-3.396;2023-07-22T00:47:08;4.32;;;3.92;;
46757;SDS011;32509;47.750;-3.396;2023-07-22T00:49:35;3.75;;;3.33;;
46757;SDS011;32509;47.750;-3.396;2023-07-22T00:52:01;5.07;;;4.05;;
46757;SDS011;32509;47.750;-3.396;2023-07-22T00:54:28;4.45;;;3.90;;
46757;SDS011;32509;47.750;-3.396;2023-07-22T00:56:55;5.25;;;3.92;;
46757;SDS011;32509;47.750;-3.396;2023-07-22T00:59:22;6.07;;;4.30;;
46757;SDS011;32509;47.750;-3.396;2023-07-22T01:01:49;5.50;;;3.67;;
46757;SDS011;32509;47.750;-3.396;2023-07-22T01:04:15;5.40;;;4.22;;
46757;SDS011;32509;47.750;-3.396;2023-07-22T01:06:44;4.78;;;3.67;;
46757;SDS011;32509;47.750;-3.396;2023-07-22T01:09:10;3.50;;;3.20;;
46757;SDS011;32509;47.750;-3.396;2023-07-22T01:11:36;6.35;;;4.10;;
46757;SDS011;32509;47.750;-3.396;2023-07-22T01:14:02;6.57;;;3.50;;
46757;SDS011;32509;47.750;-3.396;2023-07-22T01:16:28;4.38;;;3.30;;
46757;SDS011;32509;47.750;-3.396;2023-07-22T01:18:55;5.40;;;3.60;;
46757;SDS011;32509;47.750;-3.396;2023-07-22T01:21:22;4.30;;;3.40;;
46757;SDS011;32509;47.750;-3.396;2023-07-22T01:23:48;5.13;;;3.80;;
46757;SDS011;32509;47.750;-3.396;2023-07-22T01:26:15;4.18;;;3.80;;
46757;SDS011;32509;47.750;-3.396;2023-07-22T01:28:41;4.72;;;4.22;;
46757;SDS011;32509;47.750;-3.396;2023-07-22T01:31:08;3.63;;;2.92;;
46757;SDS011;32509;47.750;-3.396;2023-07-22T01:33:33;4.97;;;2.90;;
46757;SDS011;32509;47.750;-3.396;2023-07-22T01:35:59;5.82;;;3.17;;
46757;SDS011;32509;47.750;-3.396;2023-07-22T01:38:27;5.32;;;2.92;;
46757;SDS011;32509;47.750;-3.396;2023-07-22T01:40:54;4.10;;;3.22;;
46757;SDS011;32509;47.750;-3.396;2023-07-22T01:43:20;3.80;;;3.40;;
46757;SDS011;32509;47.750;-3.396;2023-07-22T01:45:46;3.55;;;3.25;;
46757;SDS011;32509;47.750;-3.396;2023-07-22T01:48:12;3.97;;;3.05;;
46757;SDS011;32509;47.750;-3.396;2023-07-22T01:50:38;4.82;;;4.20;;
46757;SDS011;32509;47.750;-3.396;2023-07-22T01:53:04;5.22;;;3.45;;
46757;SDS011;32509;47.750;-3.396;2023-07-22T01:55:31;5.38;;;4.03;;
46757;SDS011;32509;47.750;-3.396;2023-07-22T01:57:57;5.60;;;3.60;;
46757;SDS011;32509;47.750;-3.396;2023-07-22T02:00:23;6.57;;;3.30;;
46757;SDS011;32509;47.750;-3.396;2023-07-22T02:02:49;4.30;;;3.63;;
46757;SDS011;32509;47.750;-3.396;2023-07-22T02:05:15;4.78;;;3.35;;
46757;SDS011;32509;47.750;-3.396;2023-07-22T02:07:41;6.13;;;3.10;;
46757;SDS011;32509;47.750;-3.396;2023-07-22T02:10:07;5.88;;;3.72;;
46757;SDS011;32509;47.750;-3.396;2023-07-22T02:12:34;3.72;;;3.30;;
46757;SDS011;32509;47.750;-3.396;2023-07-22T02:15:00;4.72;;;3.60;;
46757;SDS011;32509;47.750;-3.396;2023-07-22T02:17:27;3.63;;;3.20;;
46757;SDS011;32509;47.750;-3.396;2023-07-22T02:19:53;4.20;;;3.80;;
46757;SDS011;32509;47.750;-3.396;2023-07-22T02:22:19;3.45;;;3.15;;
46757;SDS011;32509;47.750;-3.396;2023-07-22T02:24:45;4.93;;;3.42;;
46757;SDS011;32509;47.750;-3.396;2023-07-22T02:27:11;3.42;;;3.13;;
46757;SDS011;32509;47.750;-3.396;2023-07-22T02:29:37;3.97;;;3.55;;
46757;SDS011;32509;47.750;-3.396;2023-07-22T02:32:03;6.53;;;3.80;;
46757;SDS011;32509;47.750;-3.396;2023-07-22T02:34:29;6.63;;;3.40;;
46757;SDS011;32509;47.750;-3.396;2023-07-22T02:36:54;6.57;;;3.28;;
46757;SDS011;32509;47.750;-3.396;2023-07-22T02:39:20;7.53;;;3.10;;
46757;SDS011;32509;47.750;-3.396;2023-07-22T02:41:46;9.15;;;3.65;;
46757;SDS011;32509;47.750;-3.396;2023-07-22T02:44:12;4.95;;;3.40;;
46757;SDS011;32509;47.750;-3.396;2023-07-22T02:46:38;6.65;;;3.30;;
46757;SDS011;32509;47.750;-3.396;2023-07-22T02:49:03;3.80;;;3.28;;
46757;SDS011;32509;47.750;-3.396;2023-07-22T02:51:30;3.60;;;3.30;;
46757;SDS011;32509;47.750;-3.396;2023-07-22T02:53:56;5.07;;;3.55;;
46757;SDS011;32509;47.750;-3.396;2023-07-22T02:56:21;3.63;;;3.33;;
46757;SDS011;32509;47.750;-3.396;2023-07-22T02:58:48;5.78;;;3.70;;
46757;SDS011;32509;47.750;-3.396;2023-07-22T03:01:15;4.20;;;3.65;;
46757;SDS011;32509;47.750;-3.396;2023-07-22T03:03:40;6.72;;;3.20;;
46757;SDS011;32509;47.750;-3.396;2023-07-22T03:06:06;6.00;;;3.50;;
46757;SDS011;32509;47.750;-3.396;2023-07-22T03:08:34;3.38;;;3.03;;
46757;SDS011;32509;47.750;-3.396;2023-07-22T03:11:00;4.50;;;3.10;;
46757;SDS011;32509;47.750;-3.396;2023-07-22T03:13:25;4.15;;;3.47;;
46757;SDS011;32509;47.750;-3.396;2023-07-22T03:15:55;6.95;;;3.50;;
46757;SDS011;32509;47.750;-3.396;2023-07-22T03:18:21;3.35;;;3.05;;
46757;SDS011;32509;47.750;-3.396;2023-07-22T03:20:47;3.30;;;3.05;;
46757;SDS011;32509;47.750;-3.396;2023-07-22T03:23:13;4.10;;;3.70;;
46757;SDS011;32509;47.750;-3.396;2023-07-22T03:25:38;4.63;;;3.17;;
46757;SDS011;32509;47.750;-3.396;2023-07-22T03:28:05;3.17;;;2.90;;
46757;SDS011;32509;47.750;-3.396;2023-07-22T03:30:31;4.65;;;3.20;;
46757;SDS011;32509;47.750;-3.396;2023-07-22T03:32:58;4.13;;;3.78;;
46757;SDS011;32509;47.750;-3.396;2023-07-22T03:35:25;4.07;;;2.85;;
46757;SDS011;32509;47.750;-3.396;2023-07-22T03:37:51;4.00;;;2.88;;
46757;SDS011;32509;47.750;-3.396;2023-07-22T03:40:17;5.18;;;3.75;;
46757;SDS011;32509;47.750;-3.396;2023-07-22T03:42:49;2.80;;;2.60;;
46757;SDS011;32509;47.750;-3.396;2023-07-22T03:45:16;4.65;;;3.20;;
46757;SDS011;32509;47.750;-3.396;2023-07-22T03:47:43;4.35;;;2.97;;
46757;SDS011;32509;47.750;-3.396;2023-07-22T03:50:10;4.45;;;3.42;;
46757;SDS011;32509;47.750;-3.396;2023-07-22T03:52:36;3.92;;;3.03;;
46757;SDS011;32509;47.750;-3.396;2023-07-22T03:55:02;4.03;;;3.30;;
46757;SDS011;32509;47.750;-3.396;2023-07-22T03:57:29;3.72;;;3.15;;
46757;SDS011;32509;47.750;-3.396;2023-07-22T03:59:55;3.40;;;3.03;;
46757;SDS011;32509;47.750;-3.396;2023-07-22T04:02:21;4.88;;;2.60;;
46757;SDS011;32509;47.750;-3.396;2023-07-22T04:04:47;6.30;;;3.13;;
46757;SDS011;32509;47.750;-3.396;2023-07-22T04:07:13;2.55;;;2.35;;
46757;SDS011;32509;47.750;-3.396;2023-07-22T04:09:39;3.92;;;3.55;;
46757;SDS011;32509;47.750;-3.396;2023-07-22T04:12:05;5.03;;;3.40;;
46757;SDS011;32509;47.750;-3.396;2023-07-22T04:14:32;2.60;;;2.40;;
46757;SDS011;32509;47.750;-3.396;2023-07-22T04:16:58;5.15;;;3.17;;
46757;SDS011;32509;47.750;-3.396;2023-07-22T04:19:23;2.97;;;2.78;;
46757;SDS011;32509;47.750;-3.396;2023-07-22T04:21:49;4.57;;;2.55;;
46757;SDS011;32509;47.750;-3.396;2023-07-22T04:24:15;3.03;;;2.83;;
46757;SDS011;32509;47.750;-3.396;2023-07-22T04:26:44;3.63;;;2.47;;
46757;SDS011;32509;47.750;-3.396;2023-07-22T04:29:10;3.88;;;3.17;;
46757;SDS011;32509;47.750;-3.396;2023-07-22T04:31:37;2.67;;;2.35;;
46757;SDS011;32509;47.750;-3.396;2023-07-22T04:34:03;3.33;;;2.85;;
46757;SDS011;32509;47.750;-3.396;2023-07-22T04:36:30;4.35;;;2.72;;
46757;SDS011;32509;47.750;-3.396;2023-07-22T04:38:56;3.70;;;3.40;;
46757;SDS011;32509;47.750;-3.396;2023-07-22T04:41:22;4.97;;;3.78;;
46757;SDS011;32509;47.750;-3.396;2023-07-22T04:43:48;3.03;;;2.42;;
46757;SDS011;32509;47.750;-3.396;2023-07-22T04:46:15;3.15;;;2.85;;
46757;SDS011;32509;47.750;-3.396;2023-07-22T04:48:41;2.72;;;2.53;;
46757;SDS011;32509;47.750;-3.396;2023-07-22T04:51:07;4.10;;;3.15;;
46757;SDS011;32509;47.750;-3.396;2023-07-22T04:53:33;3.00;;;2.80;;
46757;SDS011;32509;47.750;-3.396;2023-07-22T04:55:59;2.60;;;2.40;;
46757;SDS011;32509;47.750;-3.396;2023-07-22T04:58:24;4.05;;;3.25;;
46757;SDS011;32509;47.750;-3.396;2023-07-22T05:00:50;3.88;;;2.95;;
46757;SDS011;32509;47.750;-3.396;2023-07-22T05:03:17;4.05;;;2.88;;
46757;SDS011;32509;47.750;-3.396;2023-07-22T05:05:43;3.15;;;2.90;;
46757;SDS011;32509;47.750;-3.396;2023-07-22T05:08:09;3.60;;;2.70;;
46757;SDS011;32509;47.750;-3.396;2023-07-22T05:10:39;4.45;;;2.95;;
46757;SDS011;32509;47.750;-3.396;2023-07-22T05:13:04;3.55;;;3.25;;
46757;SDS011;32509;47.750;-3.396;2023-07-22T05:15:30;2.85;;;2.65;;
46757;SDS011;32509;47.750;-3.396;2023-07-22T05:17:56;3.15;;;2.80;;
46757;SDS011;32509;47.750;-3.396;2023-07-22T05:20:22;3.45;;;2.70;;
46757;SDS011;32509;47.750;-3.396;2023-07-22T05:22:48;3.20;;;2.90;;
46757;SDS011;32509;47.750;-3.396;2023-07-22T05:25:20;3.15;;;2.70;;
46757;SDS011;32509;47.750;-3.396;2023-07-22T05:27:46;5.00;;;3.08;;
46757;SDS011;32509;47.750;-3.396;2023-07-22T05:30:12;3.30;;;3.00;;
46757;SDS011;32509;47.750;-3.396;2023-07-22T05:32:38;3.53;;;3.22;;
46757;SDS011;32509;47.750;-3.396;2023-07-22T05:35:04;3.72;;;3.25;;
46757;SDS011;32509;47.750;-3.396;2023-07-22T05:37:30;3.50;;;3.15;;
46757;SDS011;32509;47.750;-3.396;2023-07-22T05:39:57;3.47;;;3.17;;
46757;SDS011;32509;47.750;-3.396;2023-07-22T05:42:23;3.30;;;2.72;;
46757;SDS011;32509;47.750;-3.396;2023-07-22T05:44:48;3.58;;;3.33;;
46757;SDS011;32509;47.750;-3.396;2023-07-22T05:47:14;3.38;;;3.08;;
46757;SDS011;32509;47.750;-3.396;2023-07-22T05:49:40;4.03;;;2.90;;
46757;SDS011;32509;47.750;-3.396;2023-07-22T05:52:06;3.17;;;2.88;;
46757;SDS011;32509;47.750;-3.396;2023-07-22T05:54:32;2.80;;;2.47;;
46757;SDS011;32509;47.750;-3.396;2023-07-22T05:56:58;3.33;;;3.03;;
46757;SDS011;32509;47.750;-3.396;2023-07-22T05:59:23;4.20;;;2.40;;
46757;SDS011;32509;47.750;-3.396;2023-07-22T06:01:49;3.30;;;2.00;;
46757;SDS011;32509;47.750;-3.396;2023-07-22T06:04:15;3.33;;;2.58;;
46757;SDS011;32509;47.750;-3.396;2023-07-22T06:06:41;2.88;;;2.60;;
46757;SDS011;32509;47.750;-3.396;2023-07-22T06:09:07;4.05;;;2.38;;
46757;SDS011;32509;47.750;-3.396;2023-07-22T06:11:32;5.85;;;2.60;;
46757;SDS011;32509;47.750;-3.396;2023-07-22T06:13:58;5.07;;;2.75;;
46757;SDS011;32509;47.750;-3.396;2023-07-22T06:16:24;2.75;;;2.47;;
46757;SDS011;32509;47.750;-3.396;2023-07-22T06:18:49;3.30;;;2.58;;
46757;SDS011;32509;47.750;-3.396;2023-07-22T06:21:15;2.47;;;2.20;;
46757;SDS011;32509;47.750;-3.396;2023-07-22T06:23:41;3.17;;;2.40;;
46757;SDS011;32509;47.750;-3.396;2023-07-22T06:26:07;3.00;;;2.80;;
46757;SDS011;32509;47.750;-3.396;2023-07-22T06:28:32;2.47;;;2.28;;
46757;SDS011;32509;47.750;-3.396;2023-07-22T06:30:58;2.72;;;2.50;;
46757;SDS011;32509;47.750;-3.396;2023-07-22T06:33:24;3.95;;;2.30;;
46757;SDS011;32509;47.750;-3.396;2023-07-22T06:35:50;5.03;;;2.78;;
46757;SDS011;32509;47.750;-3.396;2023-07-22T06:38:15;2.47;;;2.28;;
46757;SDS011;32509;47.750;-3.396;2023-07-22T06:40:41;2.63;;;2.42;;
46757;SDS011;32509;47.750;-3.396;2023-07-22T06:43:07;5.35;;;2.58;;
46757;SDS011;32509;47.750;-3.396;2023-07-22T06:45:33;4.80;;;2.70;;
46757;SDS011;32509;47.750;-3.396;2023-07-22T06:47:58;3.92;;;1.85;;
46757;SDS011;32509;47.750;-3.396;2023-07-22T06:50:24;2.55;;;2.35;;
46757;SDS011;32509;47.750;-3.396;2023-07-22T06:52:50;3.22;;;2.15;;
46757;SDS011;32509;47.750;-3.396;2023-07-22T06:55:16;2.33;;;2.13;;
46757;SDS011;32509;47.750;-3.396;2023-07-22T06:57:41;2.58;;;1.95;;
46757;SDS011;32509;47.750;-3.396;2023-07-22T07:00:08;1.92;;;1.80;;
46757;SDS011;32509;47.750;-3.396;2023-07-22T07:02:35;1.92;;;1.60;;
46757;SDS011;32509;47.750;-3.396;2023-07-22T07:05:01;2.65;;;2.20;;
46757;SDS011;32509;47.750;-3.396;2023-07-22T07:07:27;1.90;;;1.80;;
46757;SDS011;32509;47.750;-3.396;2023-07-22T07:09:53;2.45;;;1.80;;
46757;SDS011;32509;47.750;-3.396;2023-07-22T07:12:18;1.55;;;1.45;;
46757;SDS011;32509;47.750;-3.396;2023-07-22T07:14:44;2.65;;;1.85;;
46757;SDS011;32509;47.750;-3.396;2023-07-22T07:17:10;5.22;;;1.60;;
46757;SDS011;32509;47.750;-3.396;2023-07-22T07:19:36;3.35;;;2.00;;
46757;SDS011;32509;47.750;-3.396;2023-07-22T07:22:01;2.80;;;2.55;;
46757;SDS011;32509;47.750;-3.396;2023-07-22T07:24:27;2.80;;;2.47;;
46757;SDS011;32509;47.750;-3.396;2023-07-22T07:26:53;3.65;;;2.55;;
46757;SDS011;32509;47.750;-3.396;2023-07-22T07:29:19;4.57;;;2.40;;
46757;SDS011;32509;47.750;-3.396;2023-07-22T07:31:45;2.65;;;2.45;;
46757;SDS011;32509;47.750;-3.396;2023-07-22T07:34:10;5.47;;;3.40;;
46757;SDS011;32509;47.750;-3.396;2023-07-22T07:36:36;3.25;;;2.92;;
46757;SDS011;32509;47.750;-3.396;2023-07-22T07:39:02;3.35;;;2.42;;
46757;SDS011;32509;47.750;-3.396;2023-07-22T07:41:28;4.35;;;3.15;;
46757;SDS011;32509;47.750;-3.396;2023-07-22T07:43:54;5.07;;;3.08;;
46757;SDS011;32509;47.750;-3.396;2023-07-22T07:46:29;3.65;;;3.08;;
46757;SDS011;32509;47.750;-3.396;2023-07-22T07:48:55;3.80;;;2.55;;
46757;SDS011;32509;47.750;-3.396;2023-07-22T07:51:24;2.67;;;2.47;;
46757;SDS011;32509;47.750;-3.396;2023-07-22T07:53:52;3.53;;;2.65;;
46757;SDS011;32509;47.750;-3.396;2023-07-22T07:56:18;3.38;;;2.88;;
46757;SDS011;32509;47.750;-3.396;2023-07-22T07:58:45;3.67;;;3.38;;
46757;SDS011;32509;47.750;-3.396;2023-07-22T08:01:12;2.88;;;2.58;;
46757;SDS011;32509;47.750;-3.396;2023-07-22T08:03:38;4.07;;;3.22;;
46757;SDS011;32509;47.750;-3.396;2023-07-22T08:06:06;4.45;;;3.08;;
46757;SDS011;32509;47.750;-3.396;2023-07-22T08:08:32;2.90;;;2.42;;
46757;SDS011;32509;47.750;-3.396;2023-07-22T08:10:59;4.47;;;3.00;;
46757;SDS011;32509;47.750;-3.396;2023-07-22T08:13:29;5.07;;;3.85;;
46757;SDS011;32509;47.750;-3.396;2023-07-22T08:15:57;4.80;;;3.60;;
46757;SDS011;32509;47.750;-3.396;2023-07-22T08:18:23;4.30;;;2.97;;
46757;SDS011;32509;47.750;-3.396;2023-07-22T08:20:50;3.40;;;3.10;;
46757;SDS011;32509;47.750;-3.396;2023-07-22T08:23:17;8.25;;;4.55;;
46757;SDS011;32509;47.750;-3.396;2023-07-22T08:25:43;3.72;;;3.42;;
46757;SDS011;32509;47.750;-3.396;2023-07-22T08:28:09;6.47;;;3.25;;
46757;SDS011;32509;47.750;-3.396;2023-07-22T08:30:35;8.30;;;3.33;;
46757;SDS011;32509;47.750;-3.396;2023-07-22T08:33:01;4.60;;;3.08;;
46757;SDS011;32509;47.750;-3.396;2023-07-22T08:35:27;3.20;;;2.90;;
46757;SDS011;32509;47.750;-3.396;2023-07-22T08:37:53;6.10;;;4.22;;
46757;SDS011;32509;47.750;-3.396;2023-07-22T08:40:19;3.58;;;3.20;;
46757;SDS011;32509;47.750;-3.396;2023-07-22T08:42:45;5.72;;;3.05;;
46757;SDS011;32509;47.750;-3.396;2023-07-22T08:45:14;6.80;;;3.72;;
46757;SDS011;32509;47.750;-3.396;2023-07-22T08:47:45;4.22;;;3.10;;
46757;SDS011;32509;47.750;-3.396;2023-07-22T08:50:12;9.82;;;3.28;;
46757;SDS011;32509;47.750;-3.396;2023-07-22T08:52:43;3.85;;;2.47;;
46757;SDS011;32509;47.750;-3.396;2023-07-22T08:55:10;5.55;;;3.45;;
46757;SDS011;32509;47.750;-3.396;2023-07-22T08:57:36;2.72;;;2.40;;
46757;SDS011;32509;47.750;-3.396;2023-07-22T09:00:04;5.68;;;2.40;;
46757;SDS011;32509;47.750;-3.396;2023-07-22T09:02:34;3.05;;;2.58;;
46757;SDS011;32509;47.750;-3.396;2023-07-22T09:05:01;3.40;;;3.10;;
46757;SDS011;32509;47.750;-3.396;2023-07-22T09:07:27;7.65;;;3.22;;
46757;SDS011;32509;47.750;-3.396;2023-07-22T09:09:54;4.38;;;2.58;;
46757;SDS011;32509;47.750;-3.396;2023-07-22T09:12:21;5.15;;;3.75;;
46757;SDS011;32509;47.750;-3.396;2023-07-22T09:14:47;5.88;;;3.72;;
46757;SDS011;32509;47.750;-3.396;2023-07-22T09:17:14;3.22;;;2.85;;
46757;SDS011;32509;47.750;-3.396;2023-07-22T09:19:40;5.55;;;3.08;;
46757;SDS011;32509;47.750;-3.396;2023-07-22T09:22:07;3.50;;;2.78;;
46757;SDS011;32509;47.750;-3.396;2023-07-22T09:24:33;3.92;;;2.72;;
46757;SDS011;32509;47.750;-3.396;2023-07-22T09:26:59;4.55;;;3.28;;
46757;SDS011;32509;47.750;-3.396;2023-07-22T09:29:35;4.50;;;3.30;;
46757;SDS011;32509;47.750;-3.396;2023-07-22T09:32:09;3.72;;;3.35;;
46757;SDS011;32509;47.750;-3.396;2023-07-22T09:34:35;4.68;;;2.80;;
46757;SDS011;32509;47.750;-3.396;2023-07-22T09:37:01;4.85;;;3.22;;
46757;SDS011;32509;47.750;-3.396;2023-07-22T09:39:28;5.80;;;2.90;;
46757;SDS011;32509;47.750;-3.396;2023-07-22T09:41:54;6.38;;;4.82;;
46757;SDS011;32509;47.750;-3.396;2023-07-22T09:44:21;7.78;;;5.47;;
46757;SDS011;32509;47.750;-3.396;2023-07-22T09:46:50;6.00;;;5.47;;
46757;SDS011;32509;47.750;-3.396;2023-07-22T09:49:17;6.60;;;5.47;;
46757;SDS011;32509;47.750;-3.396;2023-07-22T09:51:43;4.38;;;3.95;;
46757;SDS011;32509;47.750;-3.396;2023-07-22T09:54:09;5.20;;;4.70;;
46757;SDS011;32509;47.750;-3.396;2023-07-22T09:56:49;5.25;;;2.80;;
46757;SDS011;32509;47.750;-3.396;2023-07-22T09:59:15;3.40;;;3.05;;
46757;SDS011;32509;47.750;-3.396;2023-07-22T10:01:44;8.00;;;5.43;;
46757;SDS011;32509;47.750;-3.396;2023-07-22T10:04:12;3.88;;;3.22;;
46757;SDS011;32509;47.750;-3.396;2023-07-22T10:06:41;5.03;;;4.40;;
46757;SDS011;32509;47.750;-3.396;2023-07-22T10:09:09;5.82;;;5.22;;
46757;SDS011;32509;47.750;-3.396;2023-07-22T10:11:37;6.88;;;5.97;;
46757;SDS011;32509;47.750;-3.396;2023-07-22T10:14:04;6.45;;;5.28;;
46757;SDS011;32509;47.750;-3.396;2023-07-22T10:16:30;5.78;;;5.18;;
46757;SDS011;32509;47.750;-3.396;2023-07-22T10:18:57;8.27;;;6.10;;
46757;SDS011;32509;47.750;-3.396;2023-07-22T10:21:24;7.55;;;6.35;;
46757;SDS011;32509;47.750;-3.396;2023-07-22T10:23:51;7.60;;;6.93;;
46757;SDS011;32509;47.750;-3.396;2023-07-22T10:26:18;8.23;;;7.22;;
46757;SDS011;32509;47.750;-3.396;2023-07-22T10:28:45;7.70;;;7.00;;
46757;SDS011;32509;47.750;-3.396;2023-07-22T10:31:12;8.77;;;6.97;;
46757;SDS011;32509;47.750;-3.396;2023-07-22T10:33:39;8.82;;;6.65;;
46757;SDS011;32509;47.750;-3.396;2023-07-22T10:38:37;8.93;;;8.02;;
46757;SDS011;32509;47.750;-3.396;2023-07-22T10:41:14;6.18;;;5.38;;
46757;SDS011;32509;47.750;-3.396;2023-07-22T10:43:56;14.23;;;7.43;;
46757;SDS011;32509;47.750;-3.396;2023-07-22T10:46:37;9.65;;;6.45;;
46757;SDS011;32509;47.750;-3.396;2023-07-22T10:49:09;7.50;;;6.05;;
46757;SDS011;32509;47.750;-3.396;2023-07-22T10:51:37;9.95;;;7.50;;
46757;SDS011;32509;47.750;-3.396;2023-07-22T10:54:03;6.32;;;5.72;;
46757;SDS011;32509;47.750;-3.396;2023-07-22T10:56:36;7.63;;;6.22;;
46757;SDS011;32509;47.750;-3.396;2023-07-22T10:59:02;8.57;;;6.45;;
46757;SDS011;32509;47.750;-3.396;2023-07-22T11:04:07;7.13;;;6.53;;
46757;SDS011;32509;47.750;-3.396;2023-07-22T11:09:31;9.25;;;8.13;;
46757;SDS011;32509;47.750;-3.396;2023-07-22T11:17:01;6.85;;;6.25;;
46757;SDS011;32509;47.750;-3.396;2023-07-22T11:19:29;7.80;;;7.05;;
46757;SDS011;32509;47.750;-3.396;2023-07-22T11:21:55;7.75;;;6.80;;
46757;SDS011;32509;47.750;-3.396;2023-07-22T11:24:22;8.75;;;7.90;;
46757;SDS011;32509;47.750;-3.396;2023-07-22T11:26:49;10.77;;;8.40;;
46757;SDS011;32509;47.750;-3.396;2023-07-22T11:29:17;14.43;;;9.85;;
46757;SDS011;32509;47.750;-3.396;2023-07-22T11:31:44;7.68;;;7.00;;
46757;SDS011;32509;47.750;-3.396;2023-07-22T11:34:12;8.00;;;7.15;;
46757;SDS011;32509;47.750;-3.396;2023-07-22T11:36:39;9.63;;;8.25;;
46757;SDS011;32509;47.750;-3.396;2023-07-22T11:39:07;10.43;;;9.07;;
46757;SDS011;32509;47.750;-3.396;2023-07-22T11:41:35;9.07;;;8.13;;
46757;SDS011;32509;47.750;-3.396;2023-07-22T11:44:02;9.52;;;8.63;;
46757;SDS011;32509;47.750;-3.396;2023-07-22T11:46:34;10.73;;;9.63;;
46757;SDS011;32509;47.750;-3.396;2023-07-22T11:49:01;9.43;;;7.65;;
46757;SDS011;32509;47.750;-3.396;2023-07-22T11:51:27;10.00;;;8.70;;
46757;SDS011;32509;47.750;-3.396;2023-07-22T11:53:54;9.98;;;6.75;;
46757;SDS011;32509;47.750;-3.396;2023-07-22T11:56:24;10.70;;;9.48;;
46757;SDS011;32509;47.750;-3.396;2023-07-22T11:58:52;8.90;;;8.05;;
46757;SDS011;32509;47.750;-3.396;2023-07-22T12:01:19;9.70;;;8.80;;
46757;SDS011;32509;47.750;-3.396;2023-07-22T12:03:45;11.20;;;10.00;;
46757;SDS011;32509;47.750;-3.396;2023-07-22T12:06:12;9.75;;;8.75;;
46757;SDS011;32509;47.750;-3.396;2023-07-22T12:08:46;8.00;;;7.20;;
46757;SDS011;32509;47.750;-3.396;2023-07-22T12:11:20;8.80;;;8.00;;
46757;SDS011;32509;47.750;-3.396;2023-07-22T12:16:41;10.40;;;9.02;;
46757;SDS011;32509;47.750;-3.396;2023-07-22T12:19:08;9.73;;;8.82;;
46757;SDS011;32509;47.750;-3.396;2023-07-22T12:21:35;12.27;;;8.80;;
46757;SDS011;32509;47.750;-3.396;2023-07-22T12:24:01;8.05;;;7.20;;
46757;SDS011;32509;47.750;-3.396;2023-07-22T12:26:29;10.60;;;8.50;;
46757;SDS011;32509;47.750;-3.396;2023-07-22T12:28:55;9.35;;;8.43;;
46757;SDS011;32509;47.750;-3.396;2023-07-22T12:31:21;10.75;;;9.38;;
46757;SDS011;32509;47.750;-3.396;2023-07-22T12:33:47;11.20;;;8.32;;
46757;SDS011;32509;47.750;-3.396;2023-07-22T12:36:13;11.55;;;10.35;;
46757;SDS011;32509;47.750;-3.396;2023-07-22T12:38:38;7.93;;;7.13;;
46757;SDS011;32509;47.750;-3.396;2023-07-22T12:41:04;9.68;;;8.70;;
46757;SDS011;32509;47.750;-3.396;2023-07-22T12:43:30;10.57;;;9.63;;
46757;SDS011;32509;47.750;-3.396;2023-07-22T12:45:56;9.45;;;8.35;;
46757;SDS011;32509;47.750;-3.396;2023-07-22T12:48:21;12.05;;;8.65;;
46757;SDS011;32509;47.750;-3.396;2023-07-22T12:50:49;10.00;;;9.02;;
46757;SDS011;32509;47.750;-3.396;2023-07-22T12:53:15;10.52;;;9.40;;
46757;SDS011;32509;47.750;-3.396;2023-07-22T12:55:41;8.02;;;7.22;;
46757;SDS011;32509;47.750;-3.396;2023-07-22T12:58:10;12.73;;;8.63;;
46757;SDS011;32509;47.750;-3.396;2023-07-22T13:00:35;13.43;;;9.18;;
46757;SDS011;32509;47.750;-3.396;2023-07-22T13:03:01;10.35;;;9.27;;
46757;SDS011;32509;47.750;-3.396;2023-07-22T13:05:27;8.65;;;7.82;;
46757;SDS011;32509;47.750;-3.396;2023-07-22T13:07:53;8.18;;;7.40;;
46757;SDS011;32509;47.750;-3.396;2023-07-22T13:10:19;9.93;;;8.93;;
46757;SDS011;32509;47.750;-3.396;2023-07-22T13:12:46;9.65;;;7.45;;
46757;SDS011;32509;47.750;-3.396;2023-07-22T13:15:12;10.82;;;9.15;;
46757;SDS011;32509;47.750;-3.396;2023-07-22T13:17:38;10.52;;;9.43;;
46757;SDS011;32509;47.750;-3.396;2023-07-22T13:20:07;9.50;;;8.07;;
46757;SDS011;32509;47.750;-3.396;2023-07-22T13:22:34;11.52;;;8.45;;
46757;SDS011;32509;47.750;-3.396;2023-07-22T13:25:01;10.32;;;9.32;;
46757;SDS011;32509;47.750;-3.396;2023-07-22T13:27:28;20.80;;;9.40;;
46757;SDS011;32509;47.750;-3.396;2023-07-22T13:29:54;24.27;;;8.65;;
46757;SDS011;32509;47.750;-3.396;2023-07-22T13:32:19;11.60;;;9.80;;
46757;SDS011;32509;47.750;-3.396;2023-07-22T13:34:46;14.48;;;9.90;;
46757;SDS011;32509;47.750;-3.396;2023-07-22T13:37:11;9.25;;;8.35;;
46757;SDS011;32509;47.750;-3.396;2023-07-22T13:39:37;13.85;;;10.85;;
46757;SDS011;32509;47.750;-3.396;2023-07-22T13:42:03;10.63;;;9.23;;
46757;SDS011;32509;47.750;-3.396;2023-07-22T13:44:29;11.23;;;8.40;;
46757;SDS011;32509;47.750;-3.396;2023-07-22T13:46:54;10.63;;;9.73;;
46757;SDS011;32509;47.750;-3.396;2023-07-22T13:49:20;9.30;;;8.40;;
46757;SDS011;32509;47.750;-3.396;2023-07-22T13:51:46;9.95;;;8.48;;
46757;SDS011;32509;47.750;-3.396;2023-07-22T13:54:11;12.38;;;9.30;;
46757;SDS011;32509;47.750;-3.396;2023-07-22T13:56:37;11.77;;;9.95;;
46757;SDS011;32509;47.750;-3.396;2023-07-22T13:59:03;10.20;;;8.77;;
46757;SDS011;32509;47.750;-3.396;2023-07-22T14:01:30;9.70;;;8.73;;
46757;SDS011;32509;47.750;-3.396;2023-07-22T14:03:56;10.55;;;8.90;;
46757;SDS011;32509;47.750;-3.396;2023-07-22T14:06:22;13.10;;;8.95;;
46757;SDS011;32509;47.750;-3.396;2023-07-22T14:08:48;11.32;;;9.65;;
46757;SDS011;32509;47.750;-3.396;2023-07-22T14:11:14;9.77;;;8.77;;
46757;SDS011;32509;47.750;-3.396;2023-07-22T14:13:39;12.38;;;8.65;;
46757;SDS011;32509;47.750;-3.396;2023-07-22T14:16:05;10.73;;;8.60;;
46757;SDS011;32509;47.750;-3.396;2023-07-22T14:18:31;15.55;;;10.10;;
46757;SDS011;32509;47.750;-3.396;2023-07-22T14:20:58;11.00;;;9.90;;
46757;SDS011;32509;47.750;-3.396;2023-07-22T14:23:24;11.25;;;10.05;;
46757;SDS011;32509;47.750;-3.396;2023-07-22T14:25:50;8.73;;;7.93;;
46757;SDS011;32509;47.750;-3.396;2023-07-22T14:28:15;8.68;;;7.78;;
46757;SDS011;32509;47.750;-3.396;2023-07-22T14:30:41;10.95;;;9.88;;
46757;SDS011;32509;47.750;-3.396;2023-07-22T14:33:07;10.30;;;8.13;;
46757;SDS011;32509;47.750;-3.396;2023-07-22T14:35:33;15.13;;;10.18;;
46757;SDS011;32509;47.750;-3.396;2023-07-22T14:37:59;13.75;;;8.50;;
46757;SDS011;32509;47.750;-3.396;2023-07-22T14:40:25;13.75;;;9.10;;
46757;SDS011;32509;47.750;-3.396;2023-07-22T14:42:51;9.80;;;8.90;;
46757;SDS011;32509;47.750;-3.396;2023-07-22T14:45:17;12.27;;;8.45;;